createdAt,value
2018-12-27T00:00:08.338Z,51.03
2018-12-27T00:01:08.514Z,45.90
2018-12-27T00:02:08.675Z,51.27
2018-12-27T00:03:08.848Z,45.90
2018-12-27T00:04:09.018Z,46.63
2018-12-27T00:05:09.187Z,47.36
2018-12-27T00:06:09.360Z,47.61
2018-12-27T00:07:09.534Z,47.12
2018-12-27T00:08:09.699Z,46.88
2018-12-27T00:09:09.874Z,49.07
2018-12-27T00:10:10.045Z,45.41
2018-12-27T00:11:10.224Z,46.14
2018-12-27T00:12:10.385Z,45.65
2018-12-27T00:13:10.566Z,46.39
2018-12-27T00:14:10.730Z,46.39
2018-12-27T00:15:10.897Z,45.65
2018-12-27T00:16:11.070Z,47.12
2018-12-27T00:17:11.240Z,46.14
2018-12-27T00:18:11.417Z,48.10
2018-12-27T00:19:11.595Z,59.57
2018-12-27T00:20:11.754Z,49.32
2018-12-27T00:21:11.923Z,61.04
2018-12-27T00:22:12.098Z,60.55
2018-12-27T00:23:12.275Z,51.27
2018-12-27T00:24:12.438Z,46.14
2018-12-27T00:25:12.607Z,46.14
2018-12-27T00:26:12.777Z,45.65
2018-12-27T00:27:12.951Z,45.65
2018-12-27T00:28:13.119Z,45.65
2018-12-27T00:29:13.291Z,46.88
2018-12-27T00:30:13.461Z,46.88
2018-12-27T00:31:13.632Z,47.12
2018-12-27T00:32:13.818Z,45.41
2018-12-27T00:33:13.973Z,45.65
2018-12-27T00:34:14.245Z,45.90
2018-12-27T00:35:14.316Z,46.14
2018-12-27T00:36:14.491Z,45.90
2018-12-27T00:37:14.754Z,63.23
2018-12-27T00:38:14.842Z,48.58
2018-12-27T00:39:15.019Z,48.58
2018-12-27T00:40:15.197Z,46.14
2018-12-27T00:41:15.362Z,49.56
2018-12-27T00:42:15.534Z,45.90
2018-12-27T00:43:15.705Z,47.61
2018-12-27T00:44:15.875Z,45.90
2018-12-27T00:45:16.058Z,45.65
2018-12-27T00:46:16.238Z,45.41
2018-12-27T00:47:17.158Z,45.17
2018-12-27T00:48:16.546Z,45.65
2018-12-27T00:49:16.720Z,46.39
2018-12-27T00:50:16.886Z,45.90
2018-12-27T00:51:17.050Z,62.74
2018-12-27T00:52:17.226Z,53.47
2018-12-27T00:53:17.375Z,45.65
2018-12-27T00:54:17.554Z,45.90
2018-12-27T00:55:17.721Z,47.12
2018-12-27T00:56:17.888Z,46.63
2018-12-27T00:57:18.090Z,45.90
2018-12-27T00:58:18.229Z,45.65
2018-12-27T00:59:18.397Z,47.85
2018-12-27T01:00:18.571Z,47.61
2018-12-27T01:01:18.734Z,45.90
2018-12-27T01:02:18.902Z,45.65
2018-12-27T01:03:19.081Z,45.17
2018-12-27T01:04:19.243Z,45.65
2018-12-27T01:05:19.408Z,48.83
2018-12-27T01:06:19.580Z,52.25
2018-12-27T01:08:19.908Z,45.90
2018-12-27T01:09:20.081Z,46.88
2018-12-27T01:10:20.243Z,47.36
2018-12-27T01:11:20.415Z,47.12
2018-12-27T01:13:20.746Z,46.14
2018-12-27T01:14:20.917Z,50.54
2018-12-27T01:15:21.088Z,45.90
2018-12-27T01:16:21.261Z,47.36
2018-12-27T01:17:21.430Z,57.86
2018-12-27T01:18:21.603Z,48.10
2018-12-27T01:19:21.774Z,58.84
2018-12-27T01:20:21.947Z,48.10
2018-12-27T01:21:22.116Z,63.72
2018-12-27T01:22:22.281Z,49.32
2018-12-27T01:23:22.453Z,57.37
2018-12-27T01:24:22.626Z,46.14
2018-12-27T01:25:22.793Z,46.14
2018-12-27T01:26:22.968Z,51.51
2018-12-27T01:27:23.141Z,45.90
2018-12-27T01:28:23.310Z,45.41
2018-12-27T01:29:23.483Z,45.65
2018-12-27T01:30:23.654Z,45.90
2018-12-27T01:31:23.832Z,45.65
2018-12-27T01:32:23.998Z,45.41
2018-12-27T01:33:24.162Z,45.41
2018-12-27T01:34:24.331Z,47.12
2018-12-27T01:35:24.508Z,45.41
2018-12-27T01:36:24.690Z,46.14
2018-12-27T01:37:24.853Z,45.17
2018-12-27T01:38:25.025Z,45.41
2018-12-27T01:39:25.194Z,45.17
2018-12-27T01:40:25.379Z,45.41
2018-12-27T01:41:25.536Z,49.56
2018-12-27T01:42:25.701Z,45.65
2018-12-27T01:43:25.874Z,53.22
2018-12-27T01:44:26.054Z,47.36
2018-12-27T01:45:26.216Z,47.36
2018-12-27T01:46:26.388Z,60.79
2018-12-27T01:47:26.557Z,49.56
2018-12-27T01:48:26.730Z,46.39
2018-12-27T01:49:26.906Z,45.41
2018-12-27T01:50:27.073Z,56.15
2018-12-27T01:51:27.247Z,46.14
2018-12-27T01:52:27.416Z,46.39
2018-12-27T01:53:27.595Z,45.90
2018-12-27T01:54:27.758Z,45.65
2018-12-27T01:55:27.925Z,45.65
2018-12-27T01:56:28.097Z,45.17
2018-12-27T01:57:28.270Z,45.41
2018-12-27T01:58:28.445Z,45.90
2018-12-27T01:59:28.598Z,61.52
2018-12-27T02:00:28.780Z,45.65
2018-12-27T02:01:28.944Z,45.65
2018-12-27T02:02:29.119Z,45.17
2018-12-27T02:03:29.292Z,45.41
2018-12-27T02:04:29.465Z,45.41
2018-12-27T02:05:29.635Z,46.63
2018-12-27T02:06:29.811Z,45.65
2018-12-27T02:07:29.985Z,45.41
2018-12-27T02:08:30.145Z,45.17
2018-12-27T02:09:30.315Z,45.90
2018-12-27T02:10:30.486Z,46.88
2018-12-27T02:11:30.659Z,46.39
2018-12-27T02:12:30.841Z,46.39
2018-12-27T02:13:31.006Z,47.36
2018-12-27T02:14:31.170Z,46.88
2018-12-27T02:15:31.341Z,47.61
2018-12-27T02:16:31.513Z,46.39
2018-12-27T02:17:31.681Z,48.58
2018-12-27T02:18:31.855Z,46.39
2018-12-27T02:19:32.024Z,46.63
2018-12-27T02:20:32.200Z,46.14
2018-12-27T02:21:32.372Z,46.14
2018-12-27T02:22:32.541Z,59.33
2018-12-27T02:23:32.712Z,47.12
2018-12-27T02:24:32.881Z,45.90
2018-12-27T02:25:33.061Z,45.90
2018-12-27T02:26:33.222Z,45.65
2018-12-27T02:27:33.392Z,46.14
2018-12-27T02:28:33.571Z,62.99
2018-12-27T02:29:33.744Z,54.44
2018-12-27T02:30:33.906Z,46.14
2018-12-27T02:31:34.075Z,55.91
2018-12-27T02:32:34.247Z,47.36
2018-12-27T02:33:35.569Z,58.59
2018-12-27T02:34:34.592Z,48.10
2018-12-27T02:35:34.761Z,45.65
2018-12-27T02:36:34.928Z,49.07
2018-12-27T02:37:35.101Z,47.12
2018-12-27T02:38:35.274Z,48.10
2018-12-27T02:39:35.451Z,45.90
2018-12-27T02:40:35.613Z,45.65
2018-12-27T02:41:35.792Z,46.14
2018-12-27T02:42:35.956Z,45.90
2018-12-27T02:43:36.135Z,46.14
2018-12-27T02:44:36.288Z,45.65
2018-12-27T02:45:36.474Z,45.41
2018-12-27T02:46:36.695Z,45.65
2018-12-27T02:47:36.842Z,45.90
2018-12-27T02:48:37.003Z,45.41
2018-12-27T02:49:37.176Z,48.83
2018-12-27T02:50:37.347Z,47.61
2018-12-27T02:51:37.515Z,48.10
2018-12-27T02:52:37.694Z,45.90
2018-12-27T02:53:37.865Z,61.52
2018-12-27T02:54:38.036Z,45.90
2018-12-27T02:55:38.199Z,45.90
2018-12-27T02:56:38.368Z,47.36
2018-12-27T02:57:38.537Z,45.65
2018-12-27T02:58:38.704Z,50.05
2018-12-27T02:59:38.875Z,45.65
2018-12-27T03:00:39.052Z,45.65
2018-12-27T03:01:39.221Z,45.65
2018-12-27T03:02:39.392Z,45.65
2018-12-27T03:03:43.839Z,46.39
2018-12-27T03:04:39.726Z,45.90
2018-12-27T03:05:39.913Z,46.39
2018-12-27T03:06:40.082Z,45.90
2018-12-27T03:07:40.258Z,45.65
2018-12-27T03:08:40.432Z,46.63
2018-12-27T03:09:40.599Z,45.65
2018-12-27T03:10:40.769Z,45.65
2018-12-27T03:11:40.944Z,46.63
2018-12-27T03:12:41.113Z,45.90
2018-12-27T03:13:41.297Z,45.41
2018-12-27T03:14:41.459Z,45.41
2018-12-27T03:15:41.629Z,45.65
2018-12-27T03:16:41.802Z,45.90
2018-12-27T03:17:41.970Z,45.90
2018-12-27T03:18:42.147Z,53.22
2018-12-27T03:19:42.324Z,45.90
2018-12-27T03:20:42.484Z,56.40
2018-12-27T03:21:42.656Z,48.34
2018-12-27T03:22:42.827Z,45.41
2018-12-27T03:23:43.002Z,45.90
2018-12-27T03:24:43.181Z,51.76
2018-12-27T03:25:43.332Z,73.24
2018-12-27T03:26:43.501Z,68.36
2018-12-27T03:27:43.688Z,70.07
2018-12-27T03:28:43.846Z,55.42
2018-12-27T03:29:44.018Z,56.15
2018-12-27T03:30:44.196Z,49.56
2018-12-27T03:31:44.355Z,54.69
2018-12-27T03:32:44.529Z,53.47
2018-12-27T03:33:52.468Z,55.42
2018-12-27T03:34:44.862Z,57.86
2018-12-27T03:35:45.034Z,52.98
2018-12-27T03:36:45.199Z,73.97
2018-12-27T03:37:45.379Z,64.70
2018-12-27T03:38:45.540Z,45.90
2018-12-27T03:39:45.708Z,52.73
2018-12-27T03:40:45.891Z,47.36
2018-12-27T03:41:46.058Z,48.83
2018-12-27T03:42:46.227Z,45.65
2018-12-27T03:43:46.399Z,45.65
2018-12-27T03:44:46.588Z,45.90
2018-12-27T03:45:46.738Z,45.90
2018-12-27T03:46:46.908Z,45.90
2018-12-27T03:47:47.073Z,46.14
2018-12-27T03:48:47.243Z,45.65
2018-12-27T03:49:47.413Z,47.85
2018-12-27T03:50:47.583Z,49.32
2018-12-27T03:51:47.755Z,53.96
2018-12-27T03:52:47.928Z,45.65
2018-12-27T03:53:48.093Z,45.90
2018-12-27T03:54:48.268Z,44.92
2018-12-27T03:55:48.447Z,45.17
2018-12-27T03:56:48.612Z,45.17
2018-12-27T03:57:48.774Z,49.32
2018-12-27T03:58:48.951Z,47.61
2018-12-27T03:59:49.115Z,55.42
2018-12-27T04:00:49.292Z,47.61
2018-12-27T04:01:49.465Z,46.39
2018-12-27T04:02:49.637Z,45.65
2018-12-27T04:03:49.800Z,45.41
2018-12-27T04:04:49.986Z,48.34
2018-12-27T04:05:50.141Z,48.10
2018-12-27T04:06:50.325Z,47.36
2018-12-27T04:07:50.534Z,47.36
2018-12-27T04:08:50.653Z,46.63
2018-12-27T04:09:50.833Z,45.65
2018-12-27T04:10:50.996Z,45.90
2018-12-27T04:11:51.165Z,45.65
2018-12-27T04:12:51.341Z,45.90
2018-12-27T04:13:51.504Z,45.65
2018-12-27T04:14:51.689Z,45.41
2018-12-27T04:15:51.848Z,47.36
2018-12-27T04:16:52.017Z,46.63
2018-12-27T04:17:52.190Z,45.65
2018-12-27T04:18:52.362Z,51.27
2018-12-27T04:19:52.535Z,49.56
2018-12-27T04:20:52.705Z,50.78
2018-12-27T04:21:52.882Z,45.65
2018-12-27T04:22:53.051Z,74.46
2018-12-27T04:23:53.215Z,71.78
2018-12-27T04:24:53.387Z,45.90
2018-12-27T04:25:53.554Z,45.65
2018-12-27T04:26:53.722Z,52.73
2018-12-27T04:27:53.899Z,47.36
2018-12-27T04:28:54.063Z,50.78
2018-12-27T04:29:54.238Z,46.88
2018-12-27T04:30:54.409Z,50.54
2018-12-27T04:31:54.579Z,55.18
2018-12-27T04:32:54.748Z,52.25
2018-12-27T04:33:54.925Z,47.85
2018-12-27T04:34:55.088Z,49.56
2018-12-27T04:35:55.259Z,53.47
2018-12-27T04:36:55.427Z,55.42
2018-12-27T04:37:55.597Z,61.28
2018-12-27T04:38:55.784Z,57.62
2018-12-27T04:39:55.939Z,58.35
2018-12-27T04:40:56.106Z,47.85
2018-12-27T04:41:56.278Z,54.44
2018-12-27T04:42:56.454Z,47.12
2018-12-27T04:43:56.615Z,46.63
2018-12-27T04:44:56.786Z,48.34
2018-12-27T04:45:56.981Z,48.83
2018-12-27T04:46:57.112Z,46.14
2018-12-27T04:47:57.286Z,46.39
2018-12-27T04:48:57.458Z,51.03
2018-12-27T04:49:57.634Z,45.90
2018-12-27T04:50:57.804Z,48.83
2018-12-27T04:51:57.968Z,66.65
2018-12-27T04:52:58.140Z,51.27
2018-12-27T04:53:58.309Z,61.77
2018-12-27T04:54:58.476Z,55.18
2018-12-27T04:55:58.655Z,46.63
2018-12-27T04:56:58.824Z,46.39
2018-12-27T04:57:58.992Z,46.88
2018-12-27T04:58:59.167Z,62.50
2018-12-27T04:59:59.337Z,46.39
2018-12-27T05:00:59.513Z,70.07
2018-12-27T05:01:59.689Z,57.62
2018-12-27T05:02:59.858Z,47.36
2018-12-27T05:04:00.044Z,46.14
2018-12-27T05:05:00.263Z,46.14
2018-12-27T05:06:00.365Z,48.34
2018-12-27T05:07:00.530Z,47.85
2018-12-27T05:08:00.701Z,55.91
2018-12-27T05:09:00.875Z,47.12
2018-12-27T05:10:01.044Z,49.56
2018-12-27T05:11:01.212Z,56.88
2018-12-27T05:12:01.379Z,47.61
2018-12-27T05:13:01.557Z,62.74
2018-12-27T05:14:01.717Z,46.14
2018-12-27T05:15:01.886Z,72.75
2018-12-27T05:16:02.056Z,54.44
2018-12-27T05:17:02.230Z,62.74
2018-12-27T05:18:02.399Z,55.18
2018-12-27T05:19:02.579Z,63.72
2018-12-27T05:20:02.744Z,63.72
2018-12-27T05:21:02.909Z,55.42
2018-12-27T05:22:03.091Z,48.58
2018-12-27T05:23:03.260Z,59.08
2018-12-27T05:24:03.434Z,48.58
2018-12-27T05:25:03.604Z,57.62
2018-12-27T05:26:03.768Z,54.69
2018-12-27T05:27:03.937Z,64.21
2018-12-27T05:28:04.120Z,55.18
2018-12-27T05:29:04.282Z,55.42
2018-12-27T05:30:04.453Z,71.29
2018-12-27T05:31:04.619Z,50.78
2018-12-27T05:32:04.793Z,53.47
2018-12-27T05:33:04.960Z,46.88
2018-12-27T05:34:05.154Z,65.67
2018-12-27T05:35:05.306Z,48.10
2018-12-27T05:36:05.473Z,46.63
2018-12-27T05:37:05.644Z,45.90
2018-12-27T05:38:05.812Z,48.34
2018-12-27T05:39:05.984Z,46.39
2018-12-27T05:40:06.166Z,48.58
2018-12-27T05:41:06.327Z,53.47
2018-12-27T05:42:06.497Z,54.44
2018-12-27T05:43:06.665Z,66.65
2018-12-27T05:44:06.834Z,50.54
2018-12-27T05:45:07.035Z,74.95
2018-12-27T05:46:07.197Z,55.91
2018-12-27T05:47:07.374Z,56.40
2018-12-27T05:48:07.548Z,56.40
2018-12-27T05:49:07.713Z,51.27
2018-12-27T05:50:07.895Z,56.88
2018-12-27T05:51:08.056Z,64.70
2018-12-27T05:52:08.229Z,56.15
2018-12-27T05:53:08.383Z,55.18
2018-12-27T05:54:08.567Z,51.03
2018-12-27T05:55:08.745Z,56.15
2018-12-27T05:56:08.913Z,55.42
2018-12-27T05:57:09.084Z,51.27
2018-12-27T05:58:09.252Z,49.80
2018-12-27T05:59:09.426Z,49.32
2018-12-27T06:00:09.597Z,72.75
2018-12-27T06:01:09.765Z,80.81
2018-12-27T06:02:09.942Z,82.28
2018-12-27T06:03:10.122Z,82.28
2018-12-27T06:04:10.288Z,82.03
2018-12-27T06:05:10.460Z,81.54
2018-12-27T06:06:10.617Z,79.83
2018-12-27T06:07:10.785Z,51.51
2018-12-27T06:08:10.953Z,53.47
2018-12-27T06:09:11.127Z,51.51
2018-12-27T06:10:11.298Z,48.34
2018-12-27T06:11:11.458Z,61.77
2018-12-27T06:12:11.630Z,55.42
2018-12-27T06:13:11.804Z,53.47
2018-12-27T06:14:11.977Z,50.05
2018-12-27T06:15:12.143Z,72.75
2018-12-27T06:16:12.314Z,64.21
2018-12-27T06:17:12.484Z,57.13
2018-12-27T06:18:12.661Z,50.29
2018-12-27T06:19:12.829Z,48.83
2018-12-27T06:20:12.995Z,47.85
2018-12-27T06:21:13.168Z,55.91
2018-12-27T06:22:13.337Z,56.88
2018-12-27T06:23:13.505Z,58.35
2018-12-27T06:24:13.677Z,57.13
2018-12-27T06:25:13.874Z,60.55
2018-12-27T06:26:14.035Z,51.51
2018-12-27T06:27:14.201Z,76.66
2018-12-27T06:28:14.367Z,65.43
2018-12-27T06:29:14.546Z,56.40
2018-12-27T06:30:14.717Z,66.41
2018-12-27T06:31:14.897Z,56.40
2018-12-27T06:32:15.050Z,57.86
2018-12-27T06:33:15.220Z,54.69
2018-12-27T06:34:15.396Z,57.13
2018-12-27T06:35:15.558Z,61.77
2018-12-27T06:36:15.731Z,59.81
2018-12-27T06:37:15.901Z,53.22
2018-12-27T06:38:16.067Z,55.18
2018-12-27T06:39:16.238Z,65.67
2018-12-27T06:40:16.408Z,55.66
2018-12-27T06:41:16.576Z,53.96
2018-12-27T06:42:16.760Z,53.96
2018-12-27T06:43:16.924Z,57.62
2018-12-27T06:44:17.094Z,62.50
2018-12-27T06:45:17.260Z,72.02
2018-12-27T06:46:17.433Z,59.81
2018-12-27T06:47:17.606Z,58.11
2018-12-27T06:48:17.774Z,54.93
2018-12-27T06:49:17.950Z,60.55
2018-12-27T06:50:18.119Z,61.52
2018-12-27T06:52:18.457Z,76.42
2018-12-27T06:53:18.627Z,73.97
2018-12-27T06:54:18.795Z,72.51
2018-12-27T06:55:18.966Z,75.68
2018-12-27T06:56:19.136Z,75.44
2018-12-27T06:57:19.309Z,72.02
2018-12-27T06:58:19.490Z,63.48
2018-12-27T06:59:19.650Z,61.28
2018-12-27T07:00:19.822Z,71.78
2018-12-27T07:01:19.995Z,71.29
2018-12-27T07:02:21.275Z,62.50
2018-12-27T07:03:20.340Z,67.63
2018-12-27T07:04:20.513Z,70.56
2018-12-27T07:05:20.683Z,55.18
2018-12-27T07:06:20.850Z,63.96
2018-12-27T07:07:21.027Z,54.69
2018-12-27T07:08:21.193Z,56.40
2018-12-27T07:09:21.353Z,59.08
2018-12-27T07:10:21.526Z,59.08
2018-12-27T07:11:21.699Z,60.30
2018-12-27T07:12:21.863Z,54.93
2018-12-27T07:13:22.027Z,54.69
2018-12-27T07:14:22.215Z,60.79
2018-12-27T07:15:22.384Z,67.63
2018-12-27T07:16:22.538Z,56.88
2018-12-27T07:17:22.712Z,63.23
2018-12-27T07:18:22.882Z,63.96
2018-12-27T07:19:23.054Z,57.62
2018-12-27T07:20:23.224Z,52.00
2018-12-27T07:21:23.410Z,64.21
2018-12-27T07:22:23.569Z,57.13
2018-12-27T07:23:23.734Z,65.43
2018-12-27T07:24:23.909Z,53.71
2018-12-27T07:25:24.081Z,56.64
2018-12-27T07:26:24.238Z,57.86
2018-12-27T07:27:24.411Z,66.16
2018-12-27T07:28:24.584Z,61.28
2018-12-27T07:29:24.751Z,66.65
2018-12-27T07:30:24.925Z,69.09
2018-12-27T07:31:25.097Z,63.72
2018-12-27T07:32:25.255Z,52.00
2018-12-27T07:33:25.432Z,64.45
2018-12-27T07:34:25.593Z,71.53
2018-12-27T07:35:25.764Z,71.78
2018-12-27T07:36:25.947Z,60.30
2018-12-27T07:37:26.107Z,72.02
2018-12-27T07:38:26.272Z,61.04
2018-12-27T07:39:26.448Z,64.94
2018-12-27T07:40:26.617Z,56.64
2018-12-27T07:41:26.789Z,62.26
2018-12-27T07:42:26.967Z,65.19
2018-12-27T07:43:27.128Z,66.41
2018-12-27T07:44:27.293Z,83.01
2018-12-27T07:45:27.469Z,71.29
2018-12-27T07:46:27.632Z,74.71
2018-12-27T07:47:27.817Z,69.34
2018-12-27T07:48:27.989Z,68.60
2018-12-27T07:49:28.159Z,71.29
2018-12-27T07:50:28.326Z,70.56
2018-12-27T07:51:28.501Z,73.73
2018-12-27T07:52:28.672Z,68.60
2018-12-27T07:53:28.876Z,67.63
2018-12-27T07:54:29.017Z,63.72
2018-12-27T07:55:29.203Z,72.75
2018-12-27T07:56:29.393Z,70.80
2018-12-27T07:57:29.566Z,70.31
2018-12-27T07:58:29.728Z,65.19
2018-12-27T07:59:29.901Z,76.90
2018-12-27T08:00:30.073Z,70.07
2018-12-27T08:01:30.241Z,68.12
2018-12-27T08:02:30.421Z,72.75
2018-12-27T08:03:30.590Z,67.87
2018-12-27T08:04:30.763Z,70.80
2018-12-27T08:05:30.927Z,61.52
2018-12-27T08:06:31.103Z,64.94
2018-12-27T08:07:31.262Z,62.74
2018-12-27T08:08:31.436Z,65.43
2018-12-27T08:09:31.607Z,59.08
2018-12-27T08:10:31.780Z,65.92
2018-12-27T08:11:31.966Z,79.59
2018-12-27T08:12:32.144Z,87.89
2018-12-27T08:13:32.307Z,93.02
2018-12-27T08:14:32.478Z,82.03
2018-12-27T08:15:32.652Z,82.52
2018-12-27T08:16:32.820Z,72.27
2018-12-27T08:17:32.991Z,80.57
2018-12-27T08:18:33.159Z,82.76
2018-12-27T08:19:33.329Z,69.58
2018-12-27T08:20:33.503Z,66.65
2018-12-27T08:21:33.675Z,62.50
2018-12-27T08:22:33.844Z,63.72
2018-12-27T08:23:34.009Z,64.94
2018-12-27T08:24:34.185Z,63.96
2018-12-27T08:25:34.354Z,75.44
2018-12-27T08:26:34.518Z,63.23
2018-12-27T08:27:34.692Z,58.84
2018-12-27T08:28:34.862Z,65.43
2018-12-27T08:29:35.048Z,67.63
2018-12-27T08:30:35.209Z,72.75
2018-12-27T08:31:35.385Z,64.70
2018-12-27T08:32:35.542Z,54.93
2018-12-27T08:33:35.726Z,58.11
2018-12-27T08:34:37.163Z,60.55
2018-12-27T08:35:36.058Z,63.72
2018-12-27T08:36:36.217Z,77.64
2018-12-27T08:37:36.379Z,59.81
2018-12-27T08:38:36.550Z,61.52
2018-12-27T08:39:36.736Z,60.30
2018-12-27T08:40:36.885Z,65.43
2018-12-27T08:41:37.054Z,58.84
2018-12-27T08:42:37.232Z,56.64
2018-12-27T08:43:37.399Z,62.01
2018-12-27T08:44:37.571Z,64.70
2018-12-27T08:45:37.761Z,67.63
2018-12-27T08:46:37.912Z,66.16
2018-12-27T08:47:38.093Z,57.86
2018-12-27T08:48:38.246Z,62.99
2018-12-27T08:49:38.419Z,64.45
2018-12-27T08:50:38.615Z,75.44
2018-12-27T08:51:38.768Z,84.72
2018-12-27T08:52:38.940Z,87.16
2018-12-27T08:53:39.115Z,88.38
2018-12-27T08:54:39.289Z,84.72
2018-12-27T08:55:39.471Z,77.64
2018-12-27T08:56:39.644Z,83.01
2018-12-27T08:57:39.814Z,82.28
2018-12-27T08:58:39.961Z,70.07
2018-12-27T08:59:40.141Z,84.96
2018-12-27T09:00:40.319Z,70.56
2018-12-27T09:01:40.873Z,79.35
2018-12-27T09:02:40.663Z,63.48
2018-12-27T09:03:40.833Z,61.04
2018-12-27T09:04:41.003Z,59.08
2018-12-27T09:05:41.171Z,62.50
2018-12-27T09:06:41.342Z,63.96
2018-12-27T09:07:41.511Z,60.30
2018-12-27T09:08:41.682Z,63.72
2018-12-27T09:09:41.860Z,62.74
2018-12-27T09:10:42.033Z,59.81
2018-12-27T09:11:42.203Z,66.89
2018-12-27T09:12:42.372Z,68.12
2018-12-27T09:13:42.543Z,77.39
2018-12-27T09:14:42.712Z,73.97
2018-12-27T09:15:42.906Z,71.04
2018-12-27T09:16:43.060Z,61.28
2018-12-27T09:17:43.219Z,72.75
2018-12-27T09:18:43.381Z,72.02
2018-12-27T09:19:43.561Z,69.58
2018-12-27T09:20:43.785Z,68.12
2018-12-27T09:21:43.938Z,61.52
2018-12-27T09:22:44.106Z,65.19
2018-12-27T09:23:44.275Z,60.79
2018-12-27T09:24:44.446Z,61.04
2018-12-27T09:25:45.576Z,65.43
2018-12-27T09:26:44.799Z,64.21
2018-12-27T09:27:44.976Z,61.04
2018-12-27T09:28:45.150Z,66.16
2018-12-27T09:29:45.316Z,70.56
2018-12-27T09:30:45.497Z,72.27
2018-12-27T09:31:45.666Z,78.86
2018-12-27T09:32:45.834Z,61.04
2018-12-27T09:33:46.027Z,61.77
2018-12-27T09:34:46.198Z,58.11
2018-12-27T09:35:46.368Z,57.13
2018-12-27T09:36:46.546Z,73.00
2018-12-27T09:37:46.724Z,62.74
2018-12-27T09:38:46.891Z,71.04
2018-12-27T09:39:47.060Z,70.07
2018-12-27T09:40:47.232Z,65.43
2018-12-27T09:41:47.401Z,68.12
2018-12-27T09:42:47.579Z,64.70
2018-12-27T09:43:47.763Z,65.92
2018-12-27T09:44:47.906Z,60.55
2018-12-27T09:45:48.141Z,71.04
2018-12-27T09:46:48.253Z,61.28
2018-12-27T09:47:48.422Z,65.43
2018-12-27T09:48:48.594Z,75.93
2018-12-27T09:49:48.777Z,62.26
2018-12-27T09:50:48.937Z,65.43
2018-12-27T09:51:49.116Z,62.74
2018-12-27T09:52:49.282Z,63.72
2018-12-27T09:53:49.454Z,65.92
2018-12-27T09:54:49.636Z,63.96
2018-12-27T09:55:49.789Z,70.31
2018-12-27T09:56:49.968Z,71.78
2018-12-27T09:57:50.153Z,61.77
2018-12-27T09:58:50.312Z,62.50
2018-12-27T09:59:50.481Z,65.67
2018-12-27T10:00:50.657Z,71.53
2018-12-27T10:01:50.826Z,63.23
2018-12-27T10:02:50.999Z,70.07
2018-12-27T10:03:51.170Z,68.85
2018-12-27T10:04:51.355Z,73.49
2018-12-27T10:05:51.514Z,62.74
2018-12-27T10:06:51.690Z,64.21
2018-12-27T10:07:57.423Z,67.63
2018-12-27T10:08:52.110Z,64.94
2018-12-27T10:09:52.194Z,67.14
2018-12-27T10:10:52.364Z,67.38
2018-12-27T10:11:52.534Z,68.60
2018-12-27T10:12:52.717Z,69.34
2018-12-27T10:13:52.881Z,62.74
2018-12-27T10:14:53.095Z,61.04
2018-12-27T10:15:53.226Z,70.56
2018-12-27T10:16:53.402Z,66.16
2018-12-27T10:17:53.563Z,69.34
2018-12-27T10:18:53.745Z,69.58
2018-12-27T10:19:53.908Z,65.92
2018-12-27T10:20:54.080Z,71.78
2018-12-27T10:21:54.256Z,66.41
2018-12-27T10:22:54.440Z,66.16
2018-12-27T10:23:54.602Z,70.07
2018-12-27T10:24:54.772Z,72.51
2018-12-27T10:25:54.946Z,64.21
2018-12-27T10:26:55.115Z,70.56
2018-12-27T10:27:55.288Z,74.22
2018-12-27T10:28:55.463Z,67.14
2018-12-27T10:29:55.643Z,65.67
2018-12-27T10:30:59.798Z,70.07
2018-12-27T10:31:55.986Z,68.12
2018-12-27T10:32:56.156Z,71.78
2018-12-27T10:33:56.345Z,67.87
2018-12-27T10:34:56.507Z,68.12
2018-12-27T10:35:56.684Z,73.24
2018-12-27T10:36:56.847Z,67.14
2018-12-27T10:37:57.020Z,65.19
2018-12-27T10:38:57.192Z,62.01
2018-12-27T10:39:57.366Z,65.19
2018-12-27T10:40:57.541Z,67.63
2018-12-27T10:41:57.729Z,66.89
2018-12-27T10:42:57.887Z,70.56
2018-12-27T10:43:58.060Z,62.50
2018-12-27T10:44:58.241Z,63.72
2018-12-27T10:45:58.407Z,66.16
2018-12-27T10:46:58.584Z,61.28
2018-12-27T10:47:58.757Z,61.77
2018-12-27T10:48:58.931Z,62.26
2018-12-27T10:49:59.106Z,70.31
2018-12-27T10:50:59.278Z,65.43
2018-12-27T10:51:59.452Z,72.75
2018-12-27T10:52:59.625Z,63.96
2018-12-27T10:53:59.800Z,68.36
2018-12-27T10:54:59.975Z,64.94
2018-12-27T10:56:00.147Z,73.97
2018-12-27T10:57:00.325Z,61.28
2018-12-27T10:58:00.509Z,61.77
2018-12-27T10:59:00.674Z,63.23
2018-12-27T11:00:00.845Z,72.27
2018-12-27T11:01:01.023Z,81.79
2018-12-27T11:02:01.206Z,83.74
2018-12-27T11:03:01.373Z,83.74
2018-12-27T11:04:01.547Z,83.74
2018-12-27T11:05:01.723Z,85.21
2018-12-27T11:06:01.904Z,83.74
2018-12-27T11:07:02.129Z,71.29
2018-12-27T11:08:02.269Z,73.00
2018-12-27T11:09:02.431Z,70.07
2018-12-27T11:10:02.622Z,63.96
2018-12-27T11:11:02.789Z,65.43
2018-12-27T11:12:02.954Z,64.45
2018-12-27T11:13:03.137Z,63.48
2018-12-27T11:14:03.317Z,61.28
2018-12-27T11:15:03.489Z,70.07
2018-12-27T11:16:03.678Z,66.65
2018-12-27T11:17:03.842Z,64.21
2018-12-27T11:18:04.014Z,59.81
2018-12-27T11:19:04.190Z,62.74
2018-12-27T11:20:04.366Z,62.74
2018-12-27T11:21:04.546Z,64.45
2018-12-27T11:22:04.731Z,69.09
2018-12-27T11:23:04.903Z,64.45
2018-12-27T11:24:05.077Z,72.51
2018-12-27T11:25:05.257Z,70.56
2018-12-27T11:26:05.446Z,65.67
2018-12-27T11:27:05.624Z,62.50
2018-12-27T11:28:05.801Z,67.63
2018-12-27T11:29:05.981Z,59.81
2018-12-27T11:30:06.170Z,71.04
2018-12-27T11:31:06.347Z,63.23
2018-12-27T11:32:06.585Z,63.72
2018-12-27T11:33:06.697Z,60.30
2018-12-27T11:34:06.873Z,78.61
2018-12-27T11:35:07.056Z,75.20
2018-12-27T11:36:07.230Z,63.72
2018-12-27T11:37:07.418Z,70.56
2018-12-27T11:38:07.585Z,65.19
2018-12-27T11:39:07.771Z,61.04
2018-12-27T11:40:07.940Z,63.96
2018-12-27T11:41:08.120Z,64.21
2018-12-27T11:42:08.302Z,63.23
2018-12-27T11:43:09.636Z,66.16
2018-12-27T11:44:08.659Z,62.01
2018-12-27T11:45:08.837Z,64.21
2018-12-27T11:46:09.017Z,59.81
2018-12-27T11:47:09.192Z,62.74
2018-12-27T11:48:09.382Z,60.30
2018-12-27T11:49:09.562Z,65.19
2018-12-27T11:50:09.740Z,64.94
2018-12-27T11:51:09.919Z,60.30
2018-12-27T11:52:10.092Z,58.84
2018-12-27T11:53:10.271Z,59.33
2018-12-27T11:54:10.448Z,60.79
2018-12-27T11:55:10.634Z,61.52
2018-12-27T11:56:10.807Z,67.63
2018-12-27T11:57:10.993Z,58.84
2018-12-27T11:58:11.165Z,61.04
2018-12-27T11:59:11.332Z,68.60
2018-12-27T12:00:11.524Z,69.34
2018-12-27T12:01:11.691Z,56.64
2018-12-27T12:02:11.915Z,58.35
2018-12-27T12:03:11.988Z,77.39
2018-12-27T12:04:12.175Z,67.38
2018-12-27T12:05:12.358Z,66.16
2018-12-27T12:06:12.545Z,60.79
2018-12-27T12:07:12.704Z,58.59
2018-12-27T12:08:12.891Z,62.74
2018-12-27T12:09:13.064Z,63.48
2018-12-27T12:10:13.269Z,60.79
2018-12-27T12:11:13.416Z,70.07
2018-12-27T12:12:13.654Z,66.65
2018-12-27T12:13:13.780Z,72.75
2018-12-27T12:14:13.960Z,68.60
2018-12-27T12:15:14.131Z,69.58
2018-12-27T12:16:14.315Z,59.08
2018-12-27T12:17:14.498Z,65.43
2018-12-27T12:18:14.673Z,57.62
2018-12-27T12:19:14.858Z,66.89
2018-12-27T12:20:15.038Z,66.41
2018-12-27T12:21:15.217Z,67.14
2018-12-27T12:22:15.394Z,67.87
2018-12-27T12:23:15.574Z,60.06
2018-12-27T12:24:15.754Z,62.50
2018-12-27T12:25:15.930Z,57.13
2018-12-27T12:26:16.106Z,63.23
2018-12-27T12:27:16.285Z,59.08
2018-12-27T12:28:16.463Z,62.99
2018-12-27T12:29:16.642Z,63.23
2018-12-27T12:30:16.823Z,73.49
2018-12-27T12:31:17.007Z,60.79
2018-12-27T12:32:17.181Z,62.74
2018-12-27T12:33:17.361Z,59.57
2018-12-27T12:34:17.536Z,63.72
2018-12-27T12:35:17.714Z,59.08
2018-12-27T12:36:17.894Z,56.64
2018-12-27T12:37:18.088Z,62.26
2018-12-27T12:38:18.250Z,58.35
2018-12-27T12:39:18.425Z,59.81
2018-12-27T12:40:18.607Z,57.62
2018-12-27T12:41:18.793Z,61.04
2018-12-27T12:42:32.244Z,58.35
2018-12-27T12:43:19.147Z,58.11
2018-12-27T12:44:19.323Z,60.79
2018-12-27T12:45:19.504Z,65.92
2018-12-27T12:46:19.686Z,74.46
2018-12-27T12:47:19.871Z,64.70
2018-12-27T12:48:20.048Z,61.04
2018-12-27T12:49:20.216Z,60.55
2018-12-27T12:50:20.399Z,60.55
2018-12-27T12:51:20.573Z,67.38
2018-12-27T12:52:20.753Z,61.28
2018-12-27T12:53:20.937Z,60.79
2018-12-27T12:54:21.113Z,58.84
2018-12-27T12:55:21.287Z,60.79
2018-12-27T12:56:21.476Z,61.52
2018-12-27T12:57:22.466Z,62.26